Terminal Aerodrome Forecast
Issued by NWS St Louis, MO

Home | Current Version | Previous Version | Text Only | Print | Product List | Glossary On
Versions: 1 2 3 4 5 6 7 8 9 10 11 12 13 14 15 16 17 18 19 20 21 22 23 24
000
FTUS43 KLSX 291730
TAFSTL
TAF
KSTL 291730Z 2918/3024 34011G20KT P6SM BKN018
     FM291900 34011G20KT P6SM BKN035
     FM300000 35007KT P6SM OVC035
     FM300600 36006KT P6SM SCT008 OVC012
     FM300800 35006KT P6SM BKN008
     FM301600 34011KT P6SM VCSH OVC010=

USA.gov is the U.S. government's official web portal to all federal, state and local government web resources and services.